createdAt,value
2022-07-29T00:01:19.144Z,17.10
2022-07-29T00:03:47.842Z,17.10
2022-07-29T00:06:15.825Z,17.20
2022-07-29T00:08:43.454Z,17.20
2022-07-29T00:11:11.025Z,17.20
2022-07-29T00:13:38.575Z,17.10
2022-07-29T00:16:06.069Z,17.10
2022-07-29T00:18:33.603Z,17.10
2022-07-29T00:21:00.981Z,17.10
2022-07-29T00:23:29.238Z,17.10
2022-07-29T00:25:57.266Z,17.10
2022-07-29T00:28:24.779Z,17.10
2022-07-29T00:30:52.193Z,17.00
2022-07-29T00:33:19.737Z,17.00
2022-07-29T00:35:48.901Z,17.00
2022-07-29T00:38:17.692Z,17.00
2022-07-29T00:40:45.371Z,16.90
2022-07-29T00:43:14.105Z,17.00
2022-07-29T00:45:44.688Z,16.90
2022-07-29T00:48:12.238Z,16.90
2022-07-29T00:50:39.773Z,16.90
2022-07-29T00:53:08.031Z,16.90
2022-07-29T00:55:35.636Z,16.80
2022-07-29T00:58:03.642Z,16.80
2022-07-29T01:00:31.333Z,16.80
2022-07-29T01:02:58.886Z,16.70
2022-07-29T01:05:50.478Z,16.70
2022-07-29T01:08:16.454Z,16.70
2022-07-29T01:10:45.216Z,16.70
2022-07-29T01:13:13.039Z,16.70
2022-07-29T01:15:50.828Z,16.70
2022-07-29T01:18:22.229Z,16.60
2022-07-29T01:20:49.928Z,16.60
2022-07-29T01:23:40.626Z,16.60
2022-07-29T01:26:20.737Z,16.60
2022-07-29T01:29:01.341Z,16.60
2022-07-29T01:31:59.824Z,16.60
2022-07-29T01:34:31.851Z,16.60
2022-07-29T01:37:07.433Z,16.60
2022-07-29T01:39:36.188Z,16.60
2022-07-29T01:42:06.823Z,16.60
2022-07-29T01:44:36.783Z,16.60
2022-07-29T01:47:08.472Z,16.50
2022-07-29T01:49:37.624Z,16.50
2022-07-29T01:52:07.007Z,16.50
2022-07-29T01:54:46.875Z,16.50
2022-07-29T01:57:15.582Z,16.50
2022-07-29T01:59:44.147Z,16.40
2022-07-29T02:02:12.579Z,16.40
2022-07-29T02:04:44.119Z,16.40
2022-07-29T02:07:14.141Z,16.40
2022-07-29T02:09:42.506Z,16.30
2022-07-29T02:12:10.959Z,16.30
2022-07-29T02:14:44.850Z,16.30
2022-07-29T02:17:13.192Z,16.30
2022-07-29T02:19:42.186Z,16.30
2022-07-29T02:22:10.319Z,16.30
2022-07-29T02:24:38.295Z,16.30
2022-07-29T02:27:05.797Z,16.20
2022-07-29T02:29:33.594Z,16.30
2022-07-29T02:32:01.675Z,16.30
2022-07-29T02:34:29.381Z,16.20
2022-07-29T02:36:57.025Z,16.20
2022-07-29T02:39:25.403Z,16.20
2022-07-29T02:41:55.860Z,16.20
2022-07-29T02:44:25.263Z,16.20
2022-07-29T02:46:52.712Z,16.10
2022-07-29T02:49:29.383Z,16.10
2022-07-29T02:51:59.547Z,16.10
2022-07-29T02:54:29.995Z,16.10
2022-07-29T02:56:58.783Z,16.00
2022-07-29T02:59:27.991Z,16.00
2022-07-29T03:01:56.554Z,16.10
2022-07-29T03:04:25.448Z,16.00
2022-07-29T03:06:53.474Z,16.00
2022-07-29T03:09:21.800Z,16.00
2022-07-29T03:11:50.951Z,16.00
2022-07-29T03:14:20.558Z,16.00
2022-07-29T03:16:49.495Z,15.90
2022-07-29T03:19:17.492Z,15.90
2022-07-29T03:21:44.930Z,15.90
2022-07-29T03:24:25.302Z,15.90
2022-07-29T03:26:52.813Z,15.90
2022-07-29T03:29:20.474Z,15.90
2022-07-29T03:31:47.955Z,15.90
2022-07-29T03:34:16.329Z,15.80
2022-07-29T03:36:43.816Z,15.80
2022-07-29T03:39:12.966Z,15.70
2022-07-29T03:41:42.729Z,15.70
2022-07-29T03:44:10.760Z,15.70
2022-07-29T03:46:40.017Z,15.70
2022-07-29T03:49:09.295Z,15.60
2022-07-29T03:51:36.955Z,15.60
2022-07-29T03:54:09.836Z,15.50
2022-07-29T03:56:47.219Z,15.40
2022-07-29T03:59:16.159Z,15.40
2022-07-29T04:01:43.949Z,15.30
2022-07-29T04:04:11.559Z,15.30
2022-07-29T04:06:58.922Z,15.20
2022-07-29T04:09:26.309Z,15.20
2022-07-29T04:12:02.171Z,15.20
2022-07-29T04:14:34.672Z,15.20
2022-07-29T04:17:02.948Z,15.10
2022-07-29T04:19:30.486Z,15.10
2022-07-29T04:21:58.627Z,15.00
2022-07-29T04:24:26.244Z,15.00
2022-07-29T04:26:54.166Z,15.00
2022-07-29T04:29:21.681Z,15.00
2022-07-29T04:31:50.592Z,15.00
2022-07-29T04:34:18.825Z,15.00
2022-07-29T04:36:46.698Z,15.00
2022-07-29T04:39:17.062Z,15.00
2022-07-29T04:41:47.116Z,15.00
2022-07-29T04:44:14.713Z,14.90
2022-07-29T04:46:42.474Z,15.00
2022-07-29T04:49:10.193Z,15.00
2022-07-29T04:51:37.742Z,15.00
2022-07-29T04:54:05.307Z,15.00
2022-07-29T04:56:33.030Z,15.00
2022-07-29T04:59:00.421Z,15.00
2022-07-29T05:01:28.327Z,15.00
2022-07-29T05:04:00.142Z,15.00
2022-07-29T05:06:27.992Z,15.00
2022-07-29T05:08:55.494Z,15.00
2022-07-29T05:11:27.248Z,15.00
2022-07-29T05:13:57.458Z,15.00
2022-07-29T05:16:25.045Z,15.00
2022-07-29T05:18:52.883Z,15.00
2022-07-29T05:21:20.245Z,14.90
2022-07-29T05:23:47.677Z,14.90
2022-07-29T05:26:15.110Z,14.90
2022-07-29T05:28:42.509Z,14.90
2022-07-29T05:31:10.431Z,14.90
2022-07-29T05:33:37.815Z,14.80
2022-07-29T05:36:07.872Z,14.80
2022-07-29T05:38:36.546Z,14.80
2022-07-29T05:41:04.856Z,14.80
2022-07-29T05:43:32.343Z,14.80
2022-07-29T05:45:59.954Z,14.80
2022-07-29T05:48:27.673Z,14.80
2022-07-29T05:50:55.846Z,14.90
2022-07-29T05:53:23.562Z,14.80
2022-07-29T05:55:51.424Z,14.90
2022-07-29T05:58:18.818Z,14.90
2022-07-29T06:00:46.289Z,14.90
2022-07-29T06:03:13.792Z,15.00
2022-07-29T06:05:41.412Z,15.00
2022-07-29T06:08:08.903Z,15.00
2022-07-29T06:10:36.424Z,15.00
2022-07-29T06:13:03.952Z,15.00
2022-07-29T06:15:31.393Z,14.90
2022-07-29T06:18:00.065Z,15.00
2022-07-29T06:20:30.843Z,14.90
2022-07-29T06:22:58.615Z,15.00
2022-07-29T06:25:26.334Z,14.90
2022-07-29T06:27:53.833Z,14.90
2022-07-29T06:30:21.478Z,15.00
2022-07-29T06:32:49.111Z,15.00
2022-07-29T06:38:04.190Z,15.00
2022-07-29T06:41:04.189Z,15.00
2022-07-29T06:43:50.639Z,15.00
2022-07-29T06:46:20.089Z,15.10
2022-07-29T06:48:50.384Z,15.10
2022-07-29T06:51:22.606Z,15.20
2022-07-29T06:54:00.633Z,15.20
2022-07-29T06:56:38.565Z,15.30
2022-07-29T06:59:08.233Z,15.30
2022-07-29T07:01:36.615Z,15.40
2022-07-29T07:04:04.146Z,15.50
2022-07-29T07:06:31.632Z,15.50
2022-07-29T07:08:59.329Z,15.50
2022-07-29T07:11:26.876Z,15.60
2022-07-29T07:13:56.184Z,15.60
2022-07-29T07:16:27.030Z,15.60
2022-07-29T07:18:54.590Z,15.70
2022-07-29T07:21:22.394Z,15.60
2022-07-29T07:23:49.826Z,15.60
2022-07-29T07:26:17.335Z,15.60
2022-07-29T07:28:44.805Z,15.70
2022-07-29T07:31:13.141Z,15.70
2022-07-29T07:33:40.601Z,15.70
2022-07-29T07:36:08.093Z,15.70
2022-07-29T07:38:35.549Z,15.80
2022-07-29T07:41:03.082Z,15.80
2022-07-29T07:43:30.565Z,15.90
2022-07-29T07:45:58.426Z,16.00
2022-07-29T07:48:25.966Z,16.00
2022-07-29T07:50:53.433Z,16.10
2022-07-29T07:53:21.051Z,16.20
2022-07-29T07:58:36.382Z,16.30
2022-07-29T08:01:04.099Z,16.30
2022-07-29T08:03:31.584Z,16.30
2022-07-29T08:05:59.028Z,16.30
2022-07-29T08:08:26.566Z,16.30
2022-07-29T08:10:53.974Z,16.30
2022-07-29T08:13:22.249Z,16.30
2022-07-29T08:15:58.589Z,16.40
2022-07-29T08:18:27.269Z,16.40
2022-07-29T08:20:55.100Z,16.40
2022-07-29T08:23:23.781Z,16.50
2022-07-29T08:25:54.780Z,16.60
2022-07-29T08:28:25.609Z,16.60
2022-07-29T08:30:53.763Z,16.70
2022-07-29T08:33:21.247Z,16.80
2022-07-29T08:35:48.867Z,16.80
2022-07-29T08:38:16.313Z,16.90
2022-07-29T08:40:43.854Z,16.90
2022-07-29T08:43:11.381Z,17.00
2022-07-29T08:45:49.055Z,17.10
2022-07-29T08:48:17.945Z,17.20
2022-07-29T08:50:46.382Z,17.30
2022-07-29T08:53:15.595Z,17.40
2022-07-29T08:55:49.632Z,17.50
2022-07-29T08:58:17.641Z,17.60
2022-07-29T09:00:51.214Z,17.70
2022-07-29T09:03:20.440Z,17.80
2022-07-29T09:05:48.477Z,17.90
2022-07-29T09:08:16.856Z,18.00
2022-07-29T09:10:44.656Z,18.00
2022-07-29T09:13:12.122Z,18.10
2022-07-29T09:15:39.603Z,18.20
2022-07-29T09:18:07.118Z,18.30
2022-07-29T09:20:53.096Z,18.40
2022-07-29T09:23:23.128Z,18.60
2022-07-29T09:25:52.243Z,18.70
2022-07-29T09:28:19.712Z,18.90
2022-07-29T09:30:53.200Z,19.10
2022-07-29T09:33:21.649Z,19.10
2022-07-29T09:36:05.990Z,19.20
2022-07-29T09:38:34.452Z,19.30
2022-07-29T09:41:05.762Z,19.40
2022-07-29T09:43:34.640Z,19.40
2022-07-29T09:46:15.084Z,19.50
2022-07-29T09:48:42.578Z,19.60
2022-07-29T09:51:23.033Z,19.60
2022-07-29T09:53:55.277Z,19.70
2022-07-29T09:56:39.225Z,19.70
2022-07-29T09:59:07.673Z,19.80
2022-07-29T10:01:35.674Z,19.80
2022-07-29T10:04:03.207Z,19.80
2022-07-29T10:06:30.785Z,19.90
2022-07-29T10:09:18.560Z,20.00
2022-07-29T10:12:05.748Z,20.00
2022-07-29T10:14:34.304Z,20.10
2022-07-29T10:17:02.360Z,20.10
2022-07-29T10:19:31.404Z,20.10
2022-07-29T10:21:59.760Z,20.20
2022-07-29T10:24:28.440Z,20.20
2022-07-29T10:27:00.919Z,20.30
2022-07-29T10:29:30.042Z,20.40
2022-07-29T10:32:09.953Z,20.40
2022-07-29T10:35:03.986Z,20.40
2022-07-29T10:41:03.283Z,20.50
2022-07-29T10:43:37.228Z,20.50
2022-07-29T10:46:07.445Z,20.50
2022-07-29T10:48:36.076Z,20.40
2022-07-29T10:51:06.876Z,20.40
2022-07-29T10:53:48.033Z,20.50
2022-07-29T10:56:29.949Z,20.50
2022-07-29T10:59:37.330Z,20.60
2022-07-29T11:02:42.365Z,20.80
2022-07-29T11:05:15.708Z,20.80
2022-07-29T11:08:20.076Z,21.00
2022-07-29T11:10:49.409Z,21.00
2022-07-29T11:13:41.072Z,21.10
2022-07-29T11:16:09.070Z,21.20
2022-07-29T11:18:58.873Z,21.30
2022-07-29T11:21:53.727Z,21.40
2022-07-29T11:27:14.176Z,21.60
2022-07-29T11:29:56.509Z,21.80
2022-07-29T11:32:25.028Z,21.90
2022-07-29T11:38:19.574Z,22.00
2022-07-29T11:41:07.626Z,22.00
2022-07-29T11:43:48.470Z,22.00
2022-07-29T11:46:38.854Z,21.90
2022-07-29T11:49:09.678Z,21.80
2022-07-29T11:51:38.044Z,21.70
2022-07-29T11:54:18.086Z,21.70
2022-07-29T11:56:55.053Z,21.60
2022-07-29T11:59:22.926Z,21.50
2022-07-29T12:02:36.475Z,21.60
2022-07-29T12:04:52.831Z,21.60
2022-07-29T12:07:03.582Z,22.10
2022-07-29T12:07:34.673Z,21.60
2022-07-29T12:10:03.803Z,21.50
2022-07-29T12:12:31.177Z,21.50
2022-07-29T12:14:58.830Z,21.50
2022-07-29T12:17:32.060Z,21.40
2022-07-29T12:20:00.702Z,21.50
2022-07-29T12:22:29.932Z,21.40
2022-07-29T12:25:23.223Z,21.40
2022-07-29T12:27:58.603Z,21.30
2022-07-29T12:30:35.573Z,21.20
2022-07-29T12:33:11.424Z,21.20
2022-07-29T12:35:39.491Z,21.20
2022-07-29T12:38:07.039Z,21.30
2022-07-29T12:40:34.676Z,21.30
2022-07-29T12:43:22.375Z,21.40
2022-07-29T12:45:51.179Z,21.50
2022-07-29T12:48:19.252Z,21.70
2022-07-29T12:51:00.961Z,21.70
2022-07-29T12:53:29.113Z,21.90
2022-07-29T12:55:57.315Z,21.90
2022-07-29T12:58:32.492Z,22.00
2022-07-29T13:01:04.252Z,22.10
2022-07-29T13:03:57.561Z,22.20
2022-07-29T13:06:46.177Z,22.20
2022-07-29T13:09:21.174Z,22.20
2022-07-29T13:11:50.402Z,22.30
2022-07-29T13:14:32.659Z,22.30
2022-07-29T13:17:03.370Z,22.30
2022-07-29T13:19:34.973Z,22.30
2022-07-29T13:22:02.429Z,22.40
2022-07-29T13:24:29.950Z,22.50
2022-07-29T13:26:57.657Z,22.60
2022-07-29T13:29:31.353Z,22.80
2022-07-29T13:31:59.632Z,22.90
2022-07-29T13:34:27.309Z,23.10
2022-07-29T13:36:54.961Z,23.20
2022-07-29T13:39:22.509Z,23.20
2022-07-29T13:41:50.549Z,23.20
2022-07-29T13:44:18.715Z,23.20
2022-07-29T13:46:46.202Z,23.10
2022-07-29T13:49:13.856Z,23.10
2022-07-29T13:51:41.894Z,23.10
2022-07-29T13:54:09.458Z,23.00
2022-07-29T13:56:36.852Z,23.10
2022-07-29T13:59:04.329Z,23.20
2022-07-29T14:01:31.888Z,23.30
2022-07-29T14:03:59.438Z,23.30
2022-07-29T14:06:27.152Z,23.40
2022-07-29T14:08:56.854Z,23.40
2022-07-29T14:11:24.258Z,23.50
2022-07-29T14:13:52.162Z,23.50
2022-07-29T14:16:19.864Z,23.50
2022-07-29T14:18:47.400Z,23.50
2022-07-29T14:21:14.913Z,23.50
2022-07-29T14:23:44.983Z,23.50
2022-07-29T14:26:15.961Z,23.40
2022-07-29T14:28:50.326Z,23.40
2022-07-29T14:31:18.414Z,23.40
2022-07-29T14:33:46.352Z,23.30
2022-07-29T14:36:17.523Z,23.20
2022-07-29T14:38:45.963Z,23.20
2022-07-29T14:41:14.725Z,23.10
2022-07-29T14:43:42.843Z,23.00
2022-07-29T14:46:10.792Z,23.00
2022-07-29T14:48:38.961Z,23.00
2022-07-29T14:51:06.669Z,23.00
2022-07-29T14:53:34.088Z,23.10
2022-07-29T14:56:15.290Z,23.10
2022-07-29T14:58:51.878Z,23.10
2022-07-29T15:01:19.809Z,23.10
2022-07-29T15:03:47.512Z,23.10
2022-07-29T15:06:14.920Z,23.10
2022-07-29T15:08:42.784Z,23.10
2022-07-29T15:11:10.397Z,23.00
2022-07-29T15:13:37.798Z,22.90
2022-07-29T15:16:05.950Z,22.80
2022-07-29T15:18:33.448Z,22.60
2022-07-29T15:21:02.912Z,22.50
2022-07-29T15:23:30.411Z,22.40
2022-07-29T15:25:57.883Z,22.30
2022-07-29T15:28:25.348Z,22.20
2022-07-29T15:30:53.992Z,22.20
2022-07-29T15:33:21.578Z,22.20
2022-07-29T15:35:49.022Z,22.10
2022-07-29T15:38:17.297Z,22.20
2022-07-29T15:40:46.585Z,22.20
2022-07-29T15:43:14.295Z,22.20
2022-07-29T15:46:03.005Z,22.20
2022-07-29T15:48:30.599Z,22.10
2022-07-29T15:50:59.226Z,22.10
2022-07-29T15:53:26.942Z,22.10
2022-07-29T15:55:54.467Z,22.10
2022-07-29T15:58:22.881Z,22.10
2022-07-29T16:00:50.477Z,22.10
2022-07-29T16:03:18.061Z,22.20
2022-07-29T16:05:45.450Z,22.20
2022-07-29T16:08:13.064Z,22.20
2022-07-29T16:10:41.157Z,22.30
2022-07-29T16:13:08.930Z,22.30
2022-07-29T16:15:36.305Z,22.40
2022-07-29T16:18:03.895Z,22.30
2022-07-29T16:20:31.514Z,22.30
2022-07-29T16:22:59.022Z,22.30
2022-07-29T16:25:43.844Z,22.40
2022-07-29T16:28:13.869Z,22.40
2022-07-29T16:30:41.345Z,22.50
2022-07-29T16:33:09.252Z,22.50
2022-07-29T16:35:40.395Z,22.50
2022-07-29T16:38:07.931Z,22.50
2022-07-29T16:40:35.456Z,22.50
2022-07-29T16:43:03.084Z,22.50
2022-07-29T16:45:37.810Z,22.70
2022-07-29T16:48:14.259Z,22.50
2022-07-29T16:50:43.338Z,22.50
2022-07-29T16:53:12.295Z,22.50
2022-07-29T16:55:42.466Z,22.50
2022-07-29T16:58:12.008Z,22.50
2022-07-29T17:00:39.566Z,22.60
2022-07-29T17:03:07.060Z,22.70
2022-07-29T17:05:52.065Z,22.80
2022-07-29T17:08:22.384Z,22.80
2022-07-29T17:10:50.003Z,22.90
2022-07-29T17:13:17.497Z,22.90
2022-07-29T17:15:45.079Z,22.90
2022-07-29T17:18:13.328Z,22.90
2022-07-29T17:20:41.740Z,22.90
2022-07-29T17:23:09.621Z,22.80
2022-07-29T17:25:37.017Z,22.80
2022-07-29T17:28:04.574Z,22.70
2022-07-29T17:30:32.137Z,22.60
2022-07-29T17:32:59.836Z,22.50
2022-07-29T17:35:46.355Z,22.70
2022-07-29T17:38:13.912Z,22.40
2022-07-29T17:40:41.594Z,22.30
2022-07-29T17:43:09.557Z,22.30
2022-07-29T17:45:48.826Z,22.20
2022-07-29T17:48:18.304Z,22.10
2022-07-29T17:50:46.607Z,22.00
2022-07-29T17:53:16.261Z,22.00
2022-07-29T17:55:45.496Z,21.90
2022-07-29T17:58:13.124Z,21.80
2022-07-29T18:00:40.698Z,21.70
2022-07-29T18:03:08.525Z,21.70
2022-07-29T18:05:36.006Z,21.60
2022-07-29T18:08:03.817Z,21.60
2022-07-29T18:10:33.056Z,21.50
2022-07-29T18:13:00.615Z,21.40
2022-07-29T18:15:28.004Z,21.40
2022-07-29T18:17:56.752Z,21.30
2022-07-29T18:20:25.830Z,21.30
2022-07-29T18:22:53.543Z,21.30
2022-07-29T18:25:21.077Z,21.30
2022-07-29T18:27:48.512Z,21.40
2022-07-29T18:30:15.992Z,21.40
2022-07-29T18:32:59.299Z,21.40
2022-07-29T18:35:31.458Z,21.50
2022-07-29T18:38:01.866Z,21.60
2022-07-29T18:40:30.430Z,21.60
2022-07-29T18:42:57.955Z,21.60
2022-07-29T18:45:28.294Z,21.60
2022-07-29T18:47:56.852Z,21.70
2022-07-29T18:50:29.522Z,21.70
2022-07-29T18:52:58.896Z,21.70
2022-07-29T18:55:26.633Z,21.70
2022-07-29T18:57:56.630Z,21.70
2022-07-29T19:00:25.240Z,21.60
2022-07-29T19:02:53.275Z,21.60
2022-07-29T19:05:21.328Z,21.60
2022-07-29T19:07:48.800Z,21.50
2022-07-29T19:10:16.318Z,21.40
2022-07-29T19:12:43.724Z,21.30
2022-07-29T19:15:11.236Z,21.30
2022-07-29T19:17:38.934Z,21.20
2022-07-29T19:20:07.304Z,21.10
2022-07-29T19:22:34.878Z,21.00
2022-07-29T19:25:02.585Z,20.90
2022-07-29T19:27:30.075Z,20.80
2022-07-29T19:29:59.477Z,20.70
2022-07-29T19:32:27.180Z,20.60
2022-07-29T19:35:14.796Z,20.50
2022-07-29T19:37:42.232Z,20.40
2022-07-29T19:40:12.071Z,20.20
2022-07-29T19:42:39.506Z,20.10
2022-07-29T19:45:07.113Z,20.00
2022-07-29T19:47:34.691Z,19.80
2022-07-29T19:50:02.164Z,19.70
2022-07-29T19:52:29.658Z,19.50
2022-07-29T19:54:57.075Z,19.40
2022-07-29T19:57:24.668Z,19.30
2022-07-29T19:59:53.868Z,19.20
2022-07-29T20:02:21.409Z,19.10
2022-07-29T20:04:48.909Z,19.00
2022-07-29T20:07:16.507Z,18.90
2022-07-29T20:09:44.501Z,18.80
2022-07-29T20:12:12.622Z,18.70
2022-07-29T20:14:40.195Z,18.60
2022-07-29T20:17:07.663Z,18.50
2022-07-29T20:19:35.618Z,18.40
2022-07-29T20:22:03.326Z,18.30
2022-07-29T20:24:30.799Z,18.30
2022-07-29T20:26:58.763Z,18.20
2022-07-29T20:29:26.722Z,18.20
2022-07-29T20:31:56.501Z,18.10
2022-07-29T20:34:24.281Z,18.10
2022-07-29T20:36:51.708Z,18.10
2022-07-29T20:39:21.081Z,18.10
2022-07-29T20:41:48.934Z,18.10
2022-07-29T20:44:18.894Z,18.10
2022-07-29T20:46:46.460Z,18.00
2022-07-29T20:49:13.884Z,18.00
2022-07-29T20:51:43.455Z,18.00
2022-07-29T20:54:12.081Z,18.00
2022-07-29T20:56:39.709Z,17.90
2022-07-29T20:59:07.913Z,17.90
2022-07-29T21:01:35.580Z,17.80
2022-07-29T21:04:03.215Z,17.80
2022-07-29T21:06:30.710Z,17.70
2022-07-29T21:08:59.909Z,17.70
2022-07-29T21:11:43.796Z,17.60
2022-07-29T21:14:23.179Z,17.60
2022-07-29T21:16:51.304Z,17.50
2022-07-29T21:19:18.726Z,17.50
2022-07-29T21:21:46.141Z,17.00
2022-07-29T21:24:13.616Z,17.50
2022-07-29T21:26:41.010Z,17.40
2022-07-29T21:29:08.504Z,17.40
2022-07-29T21:31:35.945Z,17.40
2022-07-29T21:34:03.479Z,17.50
2022-07-29T21:39:18.463Z,17.40
2022-07-29T21:41:45.945Z,17.40
2022-07-29T21:44:13.352Z,17.40
2022-07-29T21:46:40.742Z,17.50
2022-07-29T21:49:08.452Z,17.40
2022-07-29T21:51:35.986Z,17.40
2022-07-29T21:54:04.115Z,17.40
2022-07-29T21:56:31.633Z,17.40
2022-07-29T21:58:59.071Z,17.40
2022-07-29T22:01:26.547Z,17.40
2022-07-29T22:03:54.150Z,17.40
2022-07-29T22:06:21.767Z,17.40
2022-07-29T22:08:49.281Z,17.40
2022-07-29T22:11:16.840Z,17.40
2022-07-29T22:13:44.378Z,17.30
2022-07-29T22:16:15.030Z,17.30
2022-07-29T22:18:46.844Z,17.30
2022-07-29T22:21:15.030Z,17.30
2022-07-29T22:23:42.772Z,17.30
2022-07-29T22:26:10.241Z,17.30
2022-07-29T22:28:37.658Z,17.30
2022-07-29T22:31:05.243Z,17.20
2022-07-29T22:33:32.723Z,17.20
2022-07-29T22:36:00.159Z,17.20
2022-07-29T22:38:27.646Z,17.20
2022-07-29T22:41:00.616Z,17.20
2022-07-29T22:43:29.320Z,17.10
2022-07-29T22:45:57.015Z,17.10
2022-07-29T22:48:24.549Z,17.10
2022-07-29T22:50:52.246Z,17.10
2022-07-29T22:53:19.823Z,17.10
2022-07-29T22:55:47.211Z,17.00
2022-07-29T22:58:14.620Z,17.00
2022-07-29T23:00:42.040Z,16.90
2022-07-29T23:03:09.638Z,16.90
2022-07-29T23:05:37.091Z,16.90
2022-07-29T23:08:04.753Z,16.80
2022-07-29T23:10:32.338Z,16.80
2022-07-29T23:12:59.838Z,16.80
2022-07-29T23:15:27.782Z,16.80
2022-07-29T23:17:55.211Z,16.80
2022-07-29T23:20:22.943Z,16.90
2022-07-29T23:22:50.418Z,16.90
2022-07-29T23:25:17.884Z,16.90
2022-07-29T23:27:45.399Z,17.00
2022-07-29T23:30:13.571Z,17.00
2022-07-29T23:32:41.091Z,17.00
2022-07-29T23:35:09.144Z,17.10
2022-07-29T23:37:36.790Z,17.10
2022-07-29T23:40:04.996Z,17.20
2022-07-29T23:42:32.554Z,17.20
2022-07-29T23:44:59.986Z,17.30
2022-07-29T23:47:29.045Z,17.30
2022-07-29T23:49:56.812Z,17.40
2022-07-29T23:52:24.259Z,17.40
2022-07-29T23:54:51.719Z,17.50
2022-07-29T23:57:22.802Z,17.50
2022-07-29T23:59:50.752Z,17.50
